KRUQ

Mid-Carolina Regional Airport

Salisbury, North Carolina, USA
METAR KRUQ 212015Z AUTO 28005KT 10SM CLR 30/20 A2980 RMK AO2 T03000202
Observed Flight Rules
Jun-21 @ 20:15 UTC (2 hours ago) Visual Flight Rules
Wind Visibility Clouds
280° at 5 knots 10 miles
  • Clear skies
Temperatures Readings
Current 30°C / 86°F
Dewpoint 20°C / 68°F
Humidity 55%
Altimeter 29.8" Hg
Pressure 1009 hPa
Elevation 236
METAR KRUQ 212015Z AUTO 28005KT 10SM CLR 30/20 A2980 RMK AO2 T03000202
Observed Flight Rules
Jun-21 @ 20:15 UTC
(2 hours ago)
VFR
Wind Visibility
280° at 5 knots 10 miles
Clouds
  • Clear skies
Temperature Dewpoint
30°C / 86°F 20°C / 68°F
Humidity Altimeter Pressure
55% 29.8" Hg 1009 hPa